Stillwater Regional Airport Stillwater US
ICAO: KSWO
IATA: SWO
Category: Medium
Scheduled Services: No

Elevation: 1000 ft
TransAlt. 18000 ft.

Airport Communications:
ASOS:135.725
KANSAS CITY CNTR:128.3
GND:121.6
MC ALESTER RDO:122.3
TWR:125.35
CTAF/UNICOM:122.7

KSWO Zoom In..

If you have problems with the map follow the link
https://www.worldairports.se/pages/airport.php?
ICAO=KSWO

Runways:

(A) RW 04 length 5004 ft width 75 ft
---- / hdg 40

(B) RW 17 length 7401 ft width 100 ft
ILS 109.15 / hdg 174

(C) RW 22 length 5004 ft width 75 ft
---- / hdg 220

(D) RW 35 length 7401 ft width 100 ft
---- / hdg 354

Location; KSWO
Day. 05 / Time. 21.53 Zulu
* Altimeter: 29.78
* Temperature: 21° c. 69.8°f.
* Wind from: 220° Speed 09 kn.
Dewpoint: 04° c.
Visibility: 10 Statute Miles.
Clouds: Clear (automated report).

KSWO 052153Z 22009KT 10SM CLR 21/04 A2978 RMK AO2 SLP080 T02060039


Wind From 220°
Speed 09 kn.

 
 
jpsmedia worldairports.se 2019   terms of use